Time;durP1;ratioP1;P1;durP2;ratioP2;P2;SDS_P1;SDS_P2;PMS_P1;PMS_P2;Temp;Humidity;BMP_temperature;BMP_pressure;BME280_temperature;BME280_humidity;BME280_pressure;Samples;Min_cycle;Max_cycle;Signal;HPM_P1;HPM_P2
2023/10/25 00:01:46;;;;;;;2.40;1.43;;;18.50;74.00;;;;;;6179818;23;20164;-87
2023/10/25 00:04:15;;;;;;;1.20;1.10;;;18.50;74.10;;;;;;6177570;23;20164;-85
2023/10/25 00:06:43;;;;;;;0.50;0.50;;;18.50;74.20;;;;;;6178860;23;20226;-85
2023/10/25 00:09:14;;;;;;;1.23;1.13;;;18.50;74.10;;;;;;6180002;23;20191;-87
2023/10/25 00:11:42;;;;;;;1.77;1.27;;;18.50;74.00;;;;;;6179923;23;20243;-87
2023/10/25 00:14:11;;;;;;;1.67;0.83;;;18.50;74.00;;;;;;6178331;23;20167;-87
2023/10/25 00:16:39;;;;;;;1.10;1.00;;;18.60;74.00;;;;;;6152969;23;20171;-86
2023/10/25 00:19:09;;;;;;;1.97;1.73;;;18.50;74.30;;;;;;6178615;23;20185;-86
2023/10/25 00:21:38;;;;;;;1.97;0.80;;;18.50;74.60;;;;;;6177380;23;20251;-87
2023/10/25 00:24:08;;;;;;;4.83;1.37;;;18.50;74.50;;;;;;6178210;23;20282;-86
2023/10/25 00:26:42;;;;;;;1.37;1.27;;;18.50;74.70;;;;;;6179404;23;20561;-87
2023/10/25 00:29:11;;;;;;;2.40;1.27;;;18.40;74.50;;;;;;6177508;23;20827;-86
2023/10/25 00:31:40;;;;;;;0.57;0.50;;;18.40;74.60;;;;;;6178851;23;20250;-86
2023/10/25 00:34:08;;;;;;;1.80;1.07;;;18.40;74.80;;;;;;6177301;23;20168;-86
2023/10/25 00:36:38;;;;;;;1.23;1.13;;;18.40;75.00;;;;;;6179350;23;20168;-85
2023/10/25 00:39:07;;;;;;;1.03;0.77;;;18.30;74.90;;;;;;6180409;23;20226;-86
2023/10/25 00:41:35;;;;;;;2.27;1.87;;;18.30;74.70;;;;;;6179494;23;20167;-85
2023/10/25 00:44:06;;;;;;;2.67;1.83;;;18.30;75.00;;;;;;6180180;23;20169;-85
2023/10/25 00:46:40;;;;;;;1.70;1.60;;;18.30;74.90;;;;;;6179268;23;20255;-86
2023/10/25 00:49:09;;;;;;;2.37;1.57;;;18.30;74.80;;;;;;6181698;23;20195;-85
2023/10/25 00:51:38;;;;;;;1.77;0.90;;;18.30;74.90;;;;;;6189161;23;20175;-85
2023/10/25 00:54:07;;;;;;;1.00;0.60;;;18.20;74.90;;;;;;6199505;23;20178;-85
2023/10/25 00:56:38;;;;;;;1.40;0.90;;;18.20;75.00;;;;;;6200723;23;20168;-86
2023/10/25 00:59:13;;;;;;;1.03;0.87;;;18.20;74.90;;;;;;6200830;23;20199;-86
2023/10/25 01:01:42;;;;;;;1.47;1.17;;;18.20;74.90;;;;;;6200483;23;20191;-86
2023/10/25 01:04:11;;;;;;;1.40;1.10;;;18.20;74.90;;;;;;6200581;23;20175;-86
2023/10/25 01:06:40;;;;;;;0.83;0.83;;;18.20;74.90;;;;;;6201049;23;20164;-87
2023/10/25 01:09:10;;;;;;;2.73;1.00;;;18.20;74.80;;;;;;6202986;23;20211;-85
2023/10/25 01:12:08;;;;;;;0.60;0.60;;;18.20;74.80;;;;;;6201099;23;20171;-86
2023/10/25 01:14:41;;;;;;;1.67;0.90;;;18.20;74.80;;;;;;6183595;23;20171;-87
2023/10/25 01:17:09;;;;;;;0.73;0.73;;;18.20;74.80;;;;;;6180679;23;20198;-87
2023/10/25 01:19:38;;;;;;;0.73;0.73;;;18.20;74.70;;;;;;6180766;23;20164;-85
2023/10/25 01:22:08;;;;;;;2.23;1.37;;;18.20;74.70;;;;;;6181019;23;20194;-87
2023/10/25 01:24:39;;;;;;;1.60;1.33;;;18.20;74.70;;;;;;6181852;23;20188;-86
2023/10/25 01:27:10;;;;;;;2.20;1.13;;;18.20;74.70;;;;;;6179541;23;20725;-86
2023/10/25 01:29:39;;;;;;;1.07;0.70;;;18.10;74.60;;;;;;6180887;23;20187;-86
2023/10/25 01:32:09;;;;;;;1.00;0.93;;;18.10;74.60;;;;;;6179496;23;20253;-87
2023/10/25 01:34:38;;;;;;;0.90;0.90;;;18.10;74.60;;;;;;6180726;23;20168;-86
2023/10/25 01:37:07;;;;;;;1.43;1.33;;;18.10;74.70;;;;;;6180655;23;20247;-87
2023/10/25 01:39:38;;;;;;;0.80;0.80;;;18.10;74.70;;;;;;6178859;23;20752;-86
2023/10/25 01:42:08;;;;;;;1.47;1.37;;;18.10;74.70;;;;;;6179898;23;20665;-87
2023/10/25 01:44:37;;;;;;;0.50;0.50;;;18.10;74.60;;;;;;6182594;23;20164;-86
2023/10/25 01:47:06;;;;;;;0.80;0.80;;;18.20;74.60;;;;;;6179491;23;20195;-86
2023/10/25 01:49:35;;;;;;;0.73;0.73;;;18.20;74.60;;;;;;6178863;23;20267;-86
2023/10/25 01:52:05;;;;;;;1.50;1.17;;;18.20;74.40;;;;;;6180428;23;20691;-87
2023/10/25 01:54:34;;;;;;;0.97;0.90;;;18.20;74.40;;;;;;6179810;23;20168;-87
2023/10/25 01:57:07;;;;;;;0.77;0.77;;;18.20;74.40;;;;;;6179632;23;20518;-86
2023/10/25 01:59:37;;;;;;;4.03;1.20;;;18.20;74.50;;;;;;6179940;23;20168;-86
2023/10/25 02:02:08;;;;;;;2.00;0.97;;;18.20;74.40;;;;;;6178474;23;20236;-88
2023/10/25 02:04:36;;;;;;;1.43;1.07;;;18.20;74.50;;;;;;6180875;23;20183;-85
2023/10/25 02:07:06;;;;;;;3.17;1.03;;;18.10;74.50;;;;;;6181080;23;20227;-86
2023/10/25 02:09:34;;;;;;;1.10;0.87;;;18.10;74.60;;;;;;6153503;23;20192;-86
2023/10/25 02:12:06;;;;;;;1.03;0.93;;;18.10;74.70;;;;;;6177129;23;20337;-85
2023/10/25 02:14:36;;;;;;;1.00;0.97;;;18.10;75.00;;;;;;6179369;23;20661;-84
2023/10/25 02:17:05;;;;;;;5.00;2.10;;;18.00;75.00;;;;;;6179698;23;20167;-87
2023/10/25 02:19:35;;;;;;;4.53;1.60;;;18.00;75.70;;;;;;6181570;23;20226;-86
2023/10/25 02:22:04;;;;;;;2.93;2.27;;;18.00;75.60;;;;;;6179703;23;20179;-86
2023/10/25 02:24:32;;;;;;;0.90;0.90;;;17.90;75.40;;;;;;6179899;23;20196;-86
2023/10/25 02:27:02;;;;;;;2.57;1.50;;;17.90;75.50;;;;;;6177315;23;20546;-85
2023/10/25 02:29:32;;;;;;;1.17;1.07;;;17.90;75.50;;;;;;6177861;23;20187;-85
2023/10/25 02:32:02;;;;;;;4.07;2.57;;;17.90;76.20;;;;;;6179024;23;21018;-87
2023/10/25 02:34:31;;;;;;;1.10;1.00;;;17.90;76.00;;;;;;6178571;23;20167;-87
2023/10/25 02:37:00;;;;;;;2.43;1.93;;;17.80;75.80;;;;;;6180316;23;20368;-86
2023/10/25 02:39:29;;;;;;;1.30;1.07;;;17.90;75.90;;;;;;6177958;23;20168;-85
2023/10/25 02:41:57;;;;;;;1.80;1.70;;;17.80;75.80;;;;;;6177832;23;20171;-84
2023/10/25 02:44:27;;;;;;;2.30;1.80;;;17.80;75.80;;;;;;6179897;23;20168;-85
2023/10/25 02:47:02;;;;;;;1.17;1.07;;;17.80;75.80;;;;;;6178954;23;20349;-87
2023/10/25 02:49:31;;;;;;;2.57;1.50;;;17.80;75.80;;;;;;6179950;23;20167;-86
2023/10/25 02:51:59;;;;;;;3.27;1.50;;;17.80;76.30;;;;;;6178283;23;20222;-85
2023/10/25 02:54:28;;;;;;;2.00;1.80;;;17.70;76.40;;;;;;6178582;23;20329;-85
2023/10/25 02:56:56;;;;;;;1.40;1.27;;;17.70;76.30;;;;;;6179137;23;20178;-87
2023/10/25 02:59:25;;;;;;;1.60;0.80;;;17.70;76.30;;;;;;6178402;23;20168;-86
2023/10/25 03:01:54;;;;;;;2.37;1.60;;;17.70;76.50;;;;;;6177639;23;20174;-87
2023/10/25 03:04:24;;;;;;;4.87;1.67;;;17.70;76.60;;;;;;6178375;23;20462;-86
2023/10/25 03:06:53;;;;;;;3.40;1.23;;;17.70;76.70;;;;;;6179744;23;20172;-87
2023/10/25 03:09:22;;;;;;;3.43;2.10;;;17.80;76.90;;;;;;6181012;23;20171;-87
2023/10/25 03:11:52;;;;;;;2.33;1.50;;;17.70;77.00;;;;;;6178959;23;20199;-87
2023/10/25 03:14:20;;;;;;;3.70;1.47;;;17.70;77.60;;;;;;6178849;23;20490;-86
2023/10/25 03:16:50;;;;;;;2.73;1.07;;;17.70;77.40;;;;;;6180313;23;20541;-86
2023/10/25 03:19:19;;;;;;;1.13;1.03;;;17.80;77.30;;;;;;6178337;23;20909;-85
2023/10/25 03:21:49;;;;;;;0.60;0.60;;;17.80;77.20;;;;;;6178429;23;20176;-87
2023/10/25 03:24:19;;;;;;;1.13;1.03;;;17.80;77.00;;;;;;6180286;23;20658;-86
2023/10/25 03:26:48;;;;;;;0.67;0.67;;;17.80;77.00;;;;;;6178410;23;20864;-87
2023/10/25 03:29:18;;;;;;;1.73;1.27;;;17.90;77.00;;;;;;6178212;23;20802;-86
2023/10/25 03:31:46;;;;;;;1.00;0.90;;;17.90;77.00;;;;;;6176920;23;20283;-86
2023/10/25 03:34:18;;;;;;;1.50;1.23;;;17.90;77.20;;;;;;6179061;23;20696;-86
2023/10/25 03:36:50;;;;;;;3.90;1.20;;;17.90;77.90;;;;;;6178704;23;20702;-85
2023/10/25 03:39:19;;;;;;;2.60;2.23;;;17.90;77.10;;;;;;6180654;23;20164;-86
2023/10/25 03:41:47;;;;;;;1.90;1.27;;;17.90;77.70;;;;;;6176782;23;20164;-86
2023/10/25 03:44:16;;;;;;;3.93;1.13;;;18.00;77.50;;;;;;6176916;23;20164;-87
2023/10/25 03:46:45;;;;;;;0.97;0.97;;;17.90;77.40;;;;;;6177423;23;20171;-85
2023/10/25 03:49:13;;;;;;;3.20;1.53;;;18.00;77.40;;;;;;6178231;23;20168;-88
2023/10/25 03:51:42;;;;;;;1.17;0.87;;;18.00;77.70;;;;;;6176460;23;20203;-85
2023/10/25 03:54:13;;;;;;;1.20;1.03;;;18.00;77.50;;;;;;6180227;23;20168;-87
2023/10/25 03:56:42;;;;;;;2.77;2.13;;;18.00;77.50;;;;;;6178894;23;20164;-88
2023/10/25 03:59:13;;;;;;;1.87;1.10;;;18.00;77.50;;;;;;6180593;23;20174;-88
2023/10/25 04:01:43;;;;;;;1.23;1.03;;;18.10;77.40;;;;;;6180164;23;20708;-88
2023/10/25 04:04:11;;;;;;;5.07;3.13;;;18.10;77.20;;;;;;6179986;23;20188;-85
2023/10/25 04:06:41;;;;;;;0.80;0.80;;;18.20;77.30;;;;;;6179516;23;20170;-91
2023/10/25 04:09:12;;;;;;;2.63;2.00;;;18.20;77.10;;;;;;6178511;23;20242;-84
2023/10/25 04:11:43;;;;;;;0.60;0.60;;;18.20;77.00;;;;;;6182395;23;20184;-87
2023/10/25 04:14:12;;;;;;;1.20;0.80;;;18.20;76.90;;;;;;6181400;23;20230;-87
2023/10/25 04:16:40;;;;;;;1.60;1.13;;;18.20;76.90;;;;;;6180612;23;20174;-88
2023/10/25 04:19:09;;;;;;;1.73;1.30;;;18.30;76.90;;;;;;6182433;23;20226;-88
2023/10/25 04:21:39;;;;;;;1.23;1.03;;;18.30;76.80;;;;;;6180283;23;20168;-87
2023/10/25 04:24:09;;;;;;;0.93;0.90;;;18.20;76.70;;;;;;6180331;23;20191;-88
2023/10/25 04:26:46;;;;;;;0.70;0.70;;;18.30;76.80;;;;;;6182171;23;20462;-88
2023/10/25 04:29:16;;;;;;;0.80;0.80;;;18.20;76.70;;;;;;6181650;23;20901;-86
2023/10/25 04:31:47;;;;;;;0.97;0.97;;;18.20;76.80;;;;;;6181130;23;20197;-87
2023/10/25 04:34:15;;;;;;;2.30;1.63;;;18.20;76.60;;;;;;6181012;23;20510;-85
2023/10/25 04:37:03;;;;;;;2.03;1.47;;;18.20;76.60;;;;;;6182589;23;20192;-85
2023/10/25 04:39:34;;;;;;;5.50;1.87;;;18.20;76.70;;;;;;6181427;23;20171;-86
2023/10/25 04:42:07;;;;;;;1.70;1.60;;;18.30;76.60;;;;;;6182100;23;20174;-88
2023/10/25 04:44:36;;;;;;;1.70;1.30;;;18.30;76.50;;;;;;6180914;23;20258;-87
2023/10/25 04:47:05;;;;;;;2.47;1.70;;;18.30;76.50;;;;;;6179387;23;20166;-85
2023/10/25 04:49:39;;;;;;;2.53;1.43;;;18.20;76.50;;;;;;6181522;23;20206;-86
2023/10/25 04:52:11;;;;;;;1.47;1.37;;;18.20;76.60;;;;;;6180617;23;20187;-86
2023/10/25 04:54:43;;;;;;;3.33;1.77;;;18.20;76.60;;;;;;6182485;23;20164;-86
2023/10/25 04:57:13;;;;;;;2.40;2.20;;;18.20;77.20;;;;;;6181960;23;20169;-87
2023/10/25 04:59:42;;;;;;;6.70;2.70;;;18.10;77.50;;;;;;6184896;23;20175;-87
2023/10/25 05:02:11;;;;;;;2.07;1.87;;;18.10;77.40;;;;;;6184774;23;20247;-86
2023/10/25 05:04:40;;;;;;;2.70;2.13;;;18.10;77.50;;;;;;6181862;23;20603;-85
2023/10/25 05:07:08;;;;;;;1.93;1.63;;;18.00;77.40;;;;;;6183508;23;20553;-87
2023/10/25 05:09:37;;;;;;;1.80;1.67;;;18.00;77.70;;;;;;6185039;23;20168;-88
2023/10/25 05:12:11;;;;;;;1.67;1.30;;;18.00;77.70;;;;;;6184268;23;20192;-85
2023/10/25 05:14:42;;;;;;;2.77;2.27;;;18.00;78.00;;;;;;6182832;23;20620;-86
2023/10/25 05:17:11;;;;;;;1.60;1.37;;;18.00;78.30;;;;;;6183844;23;20172;-86
2023/10/25 05:19:40;;;;;;;6.10;2.80;;;18.00;78.20;;;;;;6183451;23;20247;-86
2023/10/25 05:22:13;;;;;;;4.23;2.87;;;18.00;78.30;;;;;;6184201;23;20172;-86
2023/10/25 05:24:42;;;;;;;1.13;1.00;;;18.00;78.30;;;;;;6182474;23;20161;-88
2023/10/25 05:27:12;;;;;;;3.60;1.63;;;18.00;78.30;;;;;;6183090;23;20168;-85
2023/10/25 05:29:42;;;;;;;7.13;2.00;;;18.00;78.30;;;;;;6184051;23;20556;-86
2023/10/25 05:32:15;;;;;;;3.30;2.00;;;18.00;78.20;;;;;;6183499;23;20681;-85
2023/10/25 05:34:44;;;;;;;4.90;1.10;;;18.10;78.40;;;;;;6182605;23;20198;-86
2023/10/25 05:37:24;;;;;;;2.43;2.10;;;18.10;79.00;;;;;;6184882;23;20203;-85
2023/10/25 05:39:53;;;;;;;3.20;2.10;;;18.10;78.90;;;;;;6185218;23;20164;-84
2023/10/25 05:42:23;;;;;;;4.20;1.90;;;18.10;79.00;;;;;;6179171;23;20172;-85
2023/10/25 05:44:55;;;;;;;6.00;2.80;;;18.10;79.10;;;;;;6182017;23;20203;-83
2023/10/25 05:47:25;;;;;;;2.43;1.33;;;18.10;79.40;;;;;;6178915;23;20168;-83
2023/10/25 05:49:54;;;;;;;3.80;2.40;;;18.10;79.50;;;;;;6181128;23;20222;-82
2023/10/25 05:52:24;;;;;;;2.03;1.83;;;18.20;79.40;;;;;;6178710;23;20732;-83
2023/10/25 05:54:53;;;;;;;3.03;2.73;;;18.20;79.70;;;;;;6179846;23;20176;-84
2023/10/25 05:57:22;;;;;;;3.20;2.27;;;18.20;79.60;;;;;;6180363;23;20200;-83
2023/10/25 05:59:56;;;;;;;1.97;1.77;;;18.30;79.60;;;;;;6178017;23;20226;-83
2023/10/25 06:02:28;;;;;;;1.70;1.50;;;18.30;79.70;;;;;;6177863;23;20172;-82
2023/10/25 06:04:59;;;;;;;7.30;2.73;;;18.30;79.70;;;;;;6179788;23;20172;-82
2023/10/25 06:07:32;;;;;;;3.07;2.03;;;18.40;79.70;;;;;;6176976;23;20261;-81
2023/10/25 06:10:01;;;;;;;2.93;1.83;;;18.40;79.60;;;;;;6179960;23;20176;-82
2023/10/25 06:12:31;;;;;;;4.77;2.20;;;18.50;79.50;;;;;;6181241;23;20539;-81
2023/10/25 06:15:01;;;;;;;3.13;1.63;;;18.50;79.30;;;;;;6177931;23;20543;-82
2023/10/25 06:17:29;;;;;;;4.73;1.80;;;18.50;79.30;;;;;;6178625;23;20168;-82
2023/10/25 06:19:58;;;;;;;1.90;1.27;;;18.60;79.10;;;;;;6177799;23;20312;-82
2023/10/25 06:22:26;;;;;;;1.93;1.37;;;18.70;79.10;;;;;;6177169;23;20207;-83
2023/10/25 06:24:58;;;;;;;2.40;1.37;;;18.70;79.40;;;;;;6177895;23;20176;-82
2023/10/25 06:27:27;;;;;;;3.50;2.50;;;18.80;79.40;;;;;;6176357;23;20689;-82
2023/10/25 06:29:55;;;;;;;2.90;2.00;;;18.80;79.40;;;;;;6176888;23;20164;-83
2023/10/25 06:32:25;;;;;;;22.07;2.87;;;18.90;79.40;;;;;;6180670;23;20199;-82
2023/10/25 06:34:54;;;;;;;4.03;3.30;;;18.90;79.40;;;;;;6177172;23;20225;-83
2023/10/25 06:37:23;;;;;;;6.87;1.97;;;19.00;79.20;;;;;;6177932;23;20171;-82
2023/10/25 06:39:52;;;;;;;3.03;1.57;;;19.00;78.90;;;;;;6179712;23;20167;-83
2023/10/25 06:42:21;;;;;;;1.83;1.53;;;19.10;78.60;;;;;;6181092;23;20618;-84
2023/10/25 06:44:51;;;;;;;4.10;3.00;;;19.20;78.50;;;;;;6180295;23;20171;-84
2023/10/25 06:47:20;;;;;;;2.80;2.07;;;19.20;78.40;;;;;;6179197;23;20208;-82
2023/10/25 06:49:50;;;;;;;4.87;2.97;;;19.30;78.30;;;;;;6179661;23;20172;-83
2023/10/25 06:52:19;;;;;;;2.27;1.90;;;19.30;77.90;;;;;;6181717;23;20195;-82
2023/10/25 06:54:49;;;;;;;7.63;2.80;;;19.30;77.90;;;;;;6179659;23;20226;-84
2023/10/25 06:57:18;;;;;;;1.33;1.23;;;19.40;77.70;;;;;;6178946;23;20171;-82
2023/10/25 06:59:48;;;;;;;1.33;1.20;;;19.40;77.40;;;;;;6181946;23;20167;-83
2023/10/25 07:02:43;;;;;;;6.10;2.40;;;19.50;77.30;;;;;;6180261;23;20178;-84
2023/10/25 07:05:15;;;;;;;2.57;1.33;;;19.50;77.00;;;;;;6177867;23;20227;-83
2023/10/25 07:07:45;;;;;;;1.00;0.90;;;19.50;76.90;;;;;;6181569;23;20248;-83
2023/10/25 07:10:14;;;;;;;2.57;1.07;;;19.50;76.90;;;;;;6179131;23;20179;-82
2023/10/25 07:12:43;;;;;;;1.93;1.63;;;19.50;76.90;;;;;;6179369;23;20227;-83
2023/10/25 07:15:12;;;;;;;2.35;1.23;;;19.60;76.90;;;;;;6176227;23;20805;-83
2023/10/25 07:17:41;;;;;;;1.73;1.50;;;19.70;76.80;;;;;;6178239;23;20167;-84
2023/10/25 07:20:11;;;;;;;1.13;0.93;;;19.70;76.60;;;;;;6178064;23;20168;-82
2023/10/25 07:22:42;;;;;;;1.70;1.00;;;19.70;76.60;;;;;;6181312;23;20517;-84
2023/10/25 07:25:11;;;;;;;3.87;2.27;;;19.80;76.60;;;;;;6179661;23;20168;-84
2023/10/25 07:27:39;;;;;;;1.90;1.27;;;19.80;76.40;;;;;;6179228;23;20171;-85
2023/10/25 07:30:08;;;;;;;13.47;2.10;;;19.80;76.30;;;;;;6177190;23;20728;-84
2023/10/25 07:32:37;;;;;;;3.20;1.93;;;19.80;76.20;;;;;;6179395;23;20199;-84
2023/10/25 07:35:06;;;;;;;5.60;1.60;;;19.90;76.20;;;;;;6180753;23;20210;-82
2023/10/25 07:37:34;;;;;;;1.30;1.20;;;19.90;76.10;;;;;;6178382;23;20606;-83
2023/10/25 07:40:06;;;;;;;25.83;5.60;;;19.90;76.10;;;;;;6177642;23;20633;-82
2023/10/25 07:42:35;;;;;;;5.33;1.93;;;19.90;75.90;;;;;;6180225;23;20594;-82
2023/10/25 07:45:04;;;;;;;0.97;0.97;;;19.90;75.80;;;;;;6178945;23;20534;-84
2023/10/25 07:47:32;;;;;;;6.07;2.63;;;20.00;75.70;;;;;;6178586;23;20175;-83
2023/10/25 07:50:01;;;;;;;1.73;1.63;;;20.00;75.30;;;;;;6180039;23;20168;-82
2023/10/25 07:52:30;;;;;;;3.17;1.47;;;20.00;75.20;;;;;;6178203;23;20191;-84
2023/10/25 07:54:58;;;;;;;1.93;1.00;;;20.00;75.20;;;;;;6179061;23;20168;-83
2023/10/25 07:57:28;;;;;;;1.42;1.33;;;20.10;75.30;;;;;;6179549;23;20168;-84
2023/10/25 08:00:00;;;;;;;2.20;1.90;;;20.10;75.20;;;;;;6178328;23;20168;-84
2023/10/25 08:02:28;;;;;;;1.92;1.35;;;20.20;75.10;;;;;;6181292;23;20381;-83
2023/10/25 08:04:57;;;;;;;9.97;1.63;;;20.20;74.70;;;;;;6178925;23;20172;-83
2023/10/25 08:07:26;;;;;;;0.80;0.80;;;20.20;74.50;;;;;;6180375;23;20171;-83
2023/10/25 08:09:55;;;;;;;2.25;0.90;;;20.30;74.50;;;;;;6178508;23;21029;-81
2023/10/25 08:12:24;;;;;;;2.10;1.80;;;20.30;74.00;;;;;;6179796;23;20178;-82
2023/10/25 08:14:54;;;;;;;1.02;0.93;;;20.40;73.80;;;;;;6178158;23;20232;-80
2023/10/25 08:17:23;;;;;;;1.73;1.25;;;20.40;73.70;;;;;;6177689;23;20175;-81
2023/10/25 08:19:52;;;;;;;3.80;2.70;;;20.50;73.60;;;;;;6179490;23;20207;-82
2023/10/25 08:22:20;;;;;;;1.38;1.20;;;20.60;73.60;;;;;;6179210;23;20182;-83
2023/10/25 08:24:49;;;;;;;4.32;2.60;;;20.60;73.00;;;;;;6181145;23;20168;-84
2023/10/25 08:27:18;;;;;;;6.13;1.42;;;20.70;73.60;;;;;;6181379;23;20174;-82
2023/10/25 08:29:48;;;;;;;3.20;2.17;;;20.80;72.70;;;;;;6179868;23;20616;-83
2023/10/25 08:32:18;;;;;;;3.83;1.92;;;20.80;72.50;;;;;;6181113;23;20246;-82
2023/10/25 08:34:47;;;;;;;3.38;2.28;;;20.90;72.00;;;;;;6185129;23;20278;-83
2023/10/25 08:37:17;;;;;;;2.05;1.80;;;21.00;71.60;;;;;;6203281;23;20199;-83
2023/10/25 08:39:45;;;;;;;2.78;2.17;;;21.10;71.30;;;;;;6202743;23;20179;-84
2023/10/25 08:42:14;;;;;;;1.23;1.05;;;21.10;70.60;;;;;;6202021;23;20179;-83
2023/10/25 08:44:43;;;;;;;2.45;1.73;;;21.20;70.80;;;;;;6205374;23;20199;-84
2023/10/25 08:47:12;;;;;;;5.85;2.25;;;21.30;70.00;;;;;;6200582;23;20485;-86
2023/10/25 08:49:43;;;;;;;1.00;0.95;;;21.40;70.10;;;;;;6189295;23;20168;-85
2023/10/25 08:52:22;;;;;;;3.40;2.03;;;21.40;70.00;;;;;;6190354;23;20503;-84
2023/10/25 08:55:37;;;;;;;2.65;2.13;;;21.50;70.30;;;;;;6189057;23;20518;-86
2023/10/25 08:58:15;;;;;;;1.48;1.05;;;21.60;70.20;;;;;;6187578;23;20171;-87
2023/10/25 09:00:45;;;;;;;2.03;1.48;;;21.70;70.00;;;;;;6183417;23;20171;-86
2023/10/25 09:03:41;;;;;;;2.08;1.88;;;21.80;69.00;;;;;;6183461;23;20243;-86
2023/10/25 09:06:13;;;;;;;1.42;1.33;;;22.00;68.30;;;;;;6184610;23;20555;-86
2023/10/25 09:08:43;;;;;;;1.40;1.30;;;22.00;68.30;;;;;;6179295;23;20164;-85
2023/10/25 09:11:12;;;;;;;9.10;2.28;;;22.10;68.10;;;;;;6180350;23;20247;-86
2023/10/25 09:13:42;;;;;;;1.27;0.85;;;22.20;67.40;;;;;;6182945;23;20200;-86
2023/10/25 09:16:12;;;;;;;3.10;2.55;;;22.30;67.50;;;;;;6183330;23;20168;-86
2023/10/25 09:18:42;;;;;;;2.25;1.60;;;22.40;67.20;;;;;;6179158;23;20203;-87
2023/10/25 09:21:15;;;;;;;3.40;2.08;;;22.50;66.90;;;;;;6183600;23;20167;-87
2023/10/25 09:23:55;;;;;;;3.30;1.08;;;22.60;66.60;;;;;;6182490;23;20192;-85
2023/10/25 09:26:24;;;;;;;1.25;1.05;;;22.70;65.80;;;;;;6181216;23;20164;-85
2023/10/25 09:28:55;;;;;;;1.35;0.68;;;22.80;65.20;;;;;;6181156;23;20170;-86
2023/10/25 09:31:27;;;;;;;3.60;1.67;;;22.90;65.60;;;;;;6183402;23;20247;-87
2023/10/25 09:33:58;;;;;;;0.35;0.35;;;23.00;64.20;;;;;;6181715;23;20697;-86
2023/10/25 09:36:28;;;;;;;3.30;2.28;;;23.10;63.70;;;;;;6182299;23;20170;-86
2023/10/25 09:38:57;;;;;;;1.48;0.93;;;23.10;62.00;;;;;;6179875;23;20175;-85
2023/10/25 09:41:27;;;;;;;2.55;1.70;;;23.30;62.70;;;;;;6183493;23;20164;-85
2023/10/25 09:44:01;;;;;;;3.83;1.80;;;23.40;62.40;;;;;;6181531;23;20168;-89
2023/10/25 09:46:33;;;;;;;0.88;0.85;;;23.50;61.60;;;;;;6182068;23;20170;-87
2023/10/25 09:49:06;;;;;;;1.10;0.75;;;23.60;62.40;;;;;;6181117;23;20164;-85
2023/10/25 09:51:54;;;;;;;1.65;1.08;;;23.70;60.60;;;;;;6183310;23;20170;-84
2023/10/25 09:54:30;;;;;;;1.75;1.20;;;23.80;60.40;;;;;;6180952;23;20198;-86
2023/10/25 09:57:02;;;;;;;4.60;1.05;;;23.90;60.60;;;;;;6182371;23;20626;-85
2023/10/25 09:59:33;;;;;;;0.77;0.63;;;24.00;60.40;;;;;;6181137;23;20219;-87
2023/10/25 10:02:04;;;;;;;1.73;1.05;;;24.20;60.70;;;;;;6181658;23;20203;-87
2023/10/25 10:04:48;;;;;;;1.55;1.02;;;24.30;60.30;;;;;;6183338;23;20172;-87
2023/10/25 10:07:36;;;;;;;3.53;1.55;;;24.30;58.50;;;;;;6184533;23;20164;-87
2023/10/25 10:10:18;;;;;;;1.55;1.13;;;24.50;57.90;;;;;;6179255;23;20271;-89
2023/10/25 10:12:47;;;;;;;0.75;0.75;;;24.60;57.60;;;;;;6181603;23;20167;-88
2023/10/25 10:15:19;;;;;;;3.10;1.60;;;24.70;57.10;;;;;;6181932;23;20279;-87
2023/10/25 10:17:48;;;;;;;5.38;2.08;;;24.80;57.10;;;;;;6182324;23;20197;-86
2023/10/25 10:20:25;;;;;;;1.40;1.10;;;24.90;56.90;;;;;;6179999;23;20250;-88
2023/10/25 10:23:06;;;;;;;10.38;2.17;;;25.00;56.30;;;;;;6181975;23;20195;-90
2023/10/25 10:25:45;;;;;;;11.32;1.48;;;25.10;55.20;;;;;;6180546;23;20174;-87
2023/10/25 10:28:15;;;;;;;1.90;1.10;;;25.20;55.40;;;;;;6181213;23;20175;-86
2023/10/25 10:30:54;;;;;;;1.40;1.13;;;25.30;54.70;;;;;;6181635;23;20693;-92
2023/10/25 10:33:25;;;;;;;2.35;2.00;;;25.40;54.10;;;;;;6180954;23;20222;-87
2023/10/25 10:36:01;;;;;;;2.95;1.00;;;25.40;54.10;;;;;;6182429;23;20175;-85
2023/10/25 10:39:08;;;;;;;0.68;0.68;;;25.50;53.90;;;;;;6180098;23;20765;-89
2023/10/25 10:41:38;;;;;;;3.30;1.50;;;25.60;54.10;;;;;;6179049;23;20504;-84
2023/10/25 10:44:09;;;;;;;1.60;1.00;;;25.60;53.30;;;;;;6180902;23;20779;-87
2023/10/25 10:46:52;;;;;;;1.92;1.23;;;25.70;53.40;;;;;;6180049;23;20535;-87
2023/10/25 10:52:51;;;;;;;0.52;0.47;;;25.90;52.70;;;;;;5984146;23;20171;-91
2023/10/25 10:55:36;;;;;;;9.48;1.30;;;25.90;52.10;;;;;;6037854;23;20238;-89
2023/10/25 11:01:40;;;;;;;2.38;1.00;;;26.10;52.00;;;;;;6204061;23;20223;-91
2023/10/25 11:04:51;;;;;;;2.50;1.20;;;26.10;52.10;;;;;;6211682;23;20627;-88
2023/10/25 11:07:56;;;;;;;3.50;1.65;;;26.20;52.70;;;;;;6210099;23;20170;-87
2023/10/25 11:14:30;;;;;;;1.75;0.75;;;26.30;51.90;;;;;;6192382;23;20182;-88
2023/10/25 11:25:45;;;;;;;1.48;0.43;;;26.50;49.20;;;;;;6215675;23;20182;-90
2023/10/25 11:28:32;;;;;;;2.05;1.23;;;26.50;48.90;;;;;;6216405;23;20175;-94
2023/10/25 11:31:07;;;;;;;0.20;0.20;;;26.50;47.20;;;;;;6214101;23;20667;-90
2023/10/25 11:33:55;;;;;;;3.50;0.40;;;26.60;47.70;;;;;;6212373;23;20171;-90
2023/10/25 11:40:03;;;;;;;0.73;0.57;;;26.70;47.30;;;;;;6199662;23;20167;-93
2023/10/25 11:43:22;;;;;;;0.50;0.50;;;26.80;47.90;;;;;;6213571;23;20169;-92
2023/10/25 11:46:13;;;;;;;1.85;1.25;;;26.70;47.20;;;;;;6214828;23;20702;-92
2023/10/25 11:48:51;;;;;;;0.40;0.40;;;26.80;47.60;;;;;;6217246;23;20186;-92
2023/10/25 11:51:31;;;;;;;0.60;0.57;;;26.90;46.80;;;;;;6216288;23;20166;-90
2023/10/25 11:54:20;;;;;;;12.45;0.75;;;26.90;46.40;;;;;;6217000;23;20167;-92
2023/10/25 11:57:02;;;;;;;0.30;0.30;;;27.00;46.10;;;;;;6217061;23;20178;-90
2023/10/25 11:59:57;;;;;;;4.50;0.90;;;27.10;44.90;;;;;;6220378;23;20167;-92
2023/10/25 12:02:47;;;;;;;3.42;1.08;;;27.10;44.70;;;;;;6148690;23;20205;-93
2023/10/25 12:05:37;;;;;;;0.20;0.20;;;27.10;45.00;;;;;;6157980;23;20174;-94
2023/10/25 12:08:27;;;;;;;0.20;0.20;;;27.10;44.80;;;;;;6156528;23;20785;-91
2023/10/25 12:10:59;;;;;;;1.10;1.00;;;27.10;45.20;;;;;;6155555;23;20219;-90
2023/10/25 12:13:42;;;;;;;0.65;0.45;;;27.20;45.40;;;;;;6157021;23;20207;-91
2023/10/25 12:16:51;;;;;;;0.32;0.32;;;27.20;44.80;;;;;;6151756;23;20204;-90
2023/10/25 12:19:21;;;;;;;0.35;0.35;;;27.20;44.90;;;;;;6155047;23;20677;-89
2023/10/25 12:22:56;;;;;;;;;;;;;;;;;;;;;
2023/10/25 12:25:28;;;;;;;0.82;0.47;;;27.30;43.90;;;;;;6130692;23;20172;-95
2023/10/25 12:28:03;;;;;;;4.90;0.50;;;27.30;44.20;;;;;;6158012;23;20172;-90
2023/10/25 12:30:41;;;;;;;26.95;2.03;;;27.40;44.20;;;;;;6154005;23;20196;-93
2023/10/25 12:33:16;;;;;;;4.47;0.47;;;27.40;44.50;;;;;;6157439;23;20172;-96
2023/10/25 12:35:53;;;;;;;6.13;1.48;;;27.40;44.30;;;;;;6158059;23;20634;-86
2023/10/25 12:38:23;;;;;;;0.63;0.63;;;27.40;44.20;;;;;;6130679;23;20168;-89
2023/10/25 12:40:55;;;;;;;1.10;0.40;;;27.50;44.50;;;;;;6156253;23;20403;-88
2023/10/25 12:43:26;;;;;;;1.00;0.82;;;27.60;44.30;;;;;;6155176;23;20191;-91
2023/10/25 12:45:56;;;;;;;4.03;0.55;;;27.60;44.40;;;;;;6154280;23;20177;-87
2023/10/25 12:48:25;;;;;;;3.15;1.25;;;27.60;44.50;;;;;;6152399;23;20169;-88
2023/10/25 12:50:56;;;;;;;0.22;0.22;;;27.70;44.50;;;;;;6152474;23;20624;-88
2023/10/25 12:53:26;;;;;;;0.40;0.20;;;27.70;44.60;;;;;;6150974;23;20165;-90
2023/10/25 12:55:57;;;;;;;1.55;0.95;;;27.70;45.00;;;;;;6150205;23;20576;-88
2023/10/25 12:58:29;;;;;;;0.45;0.45;;;27.70;44.80;;;;;;6154205;23;20200;-88
2023/10/25 13:01:00;;;;;;;0.30;0.30;;;27.70;45.00;;;;;;6148228;23;20219;-89
2023/10/25 13:03:32;;;;;;;8.48;1.45;;;27.70;45.50;;;;;;6146109;23;20192;-87
2023/10/25 13:06:02;;;;;;;0.85;0.65;;;27.80;45.70;;;;;;6150754;23;20176;-85
2023/10/25 13:08:36;;;;;;;1.38;0.93;;;27.80;45.70;;;;;;6153916;23;20231;-87
2023/10/25 13:11:04;;;;;;;1.65;0.63;;;27.90;45.70;;;;;;6153162;23;20191;-86
2023/10/25 13:13:33;;;;;;;0.40;0.25;;;27.90;45.50;;;;;;6154360;23;20560;-88
2023/10/25 13:16:05;;;;;;;0.70;0.55;;;27.90;46.00;;;;;;6153445;23;20227;-86
2023/10/25 13:18:33;;;;;;;0.68;0.68;;;28.00;46.10;;;;;;6154054;23;20169;-89
2023/10/25 13:21:04;;;;;;;1.85;0.40;;;28.00;45.60;;;;;;6155134;23;20252;-87
2023/10/25 13:23:35;;;;;;;0.25;0.25;;;28.00;45.60;;;;;;6154574;23;20626;-87
2023/10/25 13:26:03;;;;;;;0.20;0.20;;;28.00;45.30;;;;;;6155299;23;20608;-87
2023/10/25 13:28:32;;;;;;;0.22;0.22;;;28.00;44.90;;;;;;6154170;23;20243;-85
2023/10/25 13:31:00;;;;;;;0.30;0.30;;;27.80;45.20;;;;;;6155194;23;20169;-90
2023/10/25 13:33:30;;;;;;;1.10;0.93;;;27.70;45.50;;;;;;6156045;23;20168;-89
2023/10/25 13:36:01;;;;;;;0.40;0.40;;;27.50;46.00;;;;;;6155542;23;20228;-89
2023/10/25 13:38:29;;;;;;;0.30;0.30;;;27.40;46.20;;;;;;6156119;23;20156;-93